createdAt,value
2019-06-08T00:00:20.698Z,10.36
2019-06-08T00:01:20.606Z,10.36
2019-06-08T00:02:20.672Z,10.36
2019-06-08T00:03:20.697Z,10.35
2019-06-08T00:04:20.681Z,10.32
2019-06-08T00:05:21.076Z,10.31
2019-06-08T00:06:20.782Z,10.36
2019-06-08T00:07:20.872Z,10.37
2019-06-08T00:08:20.979Z,10.35
2019-06-08T00:09:20.889Z,10.33
2019-06-08T00:10:22.741Z,10.30
2019-06-08T00:11:21.090Z,10.27
2019-06-08T00:12:21.211Z,10.25
2019-06-08T00:13:21.215Z,10.23
2019-06-08T00:14:19.881Z,10.24
2019-06-08T00:15:20.274Z,10.22
2019-06-08T00:16:19.876Z,10.21
2019-06-08T00:17:35.143Z,10.20
2019-06-08T00:18:19.869Z,10.18
2019-06-08T00:19:19.888Z,10.17
2019-06-08T00:20:19.870Z,10.14
2019-06-08T00:21:19.869Z,10.13
2019-06-08T00:22:19.870Z,10.10
2019-06-08T00:23:20.109Z,10.08
2019-06-08T00:24:19.937Z,10.05
2019-06-08T00:25:20.904Z,10.02
2019-06-08T00:26:20.053Z,10.01
2019-06-08T00:27:21.412Z,10.03
2019-06-08T00:28:20.423Z,10.06
2019-06-08T00:29:20.299Z,10.07
2019-06-08T00:30:19.874Z,10.06
2019-06-08T00:31:20.172Z,10.07
2019-06-08T00:32:20.354Z,10.03
2019-06-08T00:33:20.543Z,9.99
2019-06-08T00:34:20.651Z,9.96
2019-06-08T00:35:20.764Z,9.94
2019-06-08T00:36:20.887Z,9.91
2019-06-08T00:37:20.814Z,9.86
2019-06-08T00:38:21.023Z,9.82
2019-06-08T00:39:20.914Z,9.78
2019-06-08T00:40:20.981Z,9.81
2019-06-08T00:41:20.667Z,9.84
2019-06-08T00:42:21.236Z,9.84
2019-06-08T00:43:19.859Z,9.80
2019-06-08T00:44:19.856Z,9.73
2019-06-08T00:45:20.053Z,9.65
2019-06-08T00:46:19.853Z,9.60
2019-06-08T00:47:20.520Z,9.52
2019-06-08T00:48:21.041Z,9.41
2019-06-08T00:49:20.584Z,9.33
2019-06-08T00:50:21.027Z,9.26
2019-06-08T00:51:21.009Z,9.22
2019-06-08T00:52:20.968Z,9.19
2019-06-08T00:53:21.219Z,9.15
2019-06-08T00:54:19.849Z,9.12
2019-06-08T00:55:19.858Z,9.18
2019-06-08T00:56:19.852Z,9.26
2019-06-08T00:57:19.857Z,9.32
2019-06-08T00:58:20.390Z,9.33
2019-06-08T00:59:19.985Z,9.32
2019-06-08T01:00:20.409Z,9.30
2019-06-08T01:01:22.112Z,9.31
2019-06-08T01:02:20.407Z,9.30
2019-06-08T01:03:19.845Z,9.26
2019-06-08T01:04:20.623Z,9.19
2019-06-08T01:05:20.015Z,9.14
2019-06-08T01:06:20.943Z,9.12
2019-06-08T01:07:19.956Z,9.15
2019-06-08T01:08:20.645Z,9.15
2019-06-08T01:09:20.246Z,9.15
2019-06-08T01:10:21.203Z,9.16
2019-06-08T01:11:20.978Z,9.20
2019-06-08T01:12:20.472Z,9.22
2019-06-08T01:13:20.871Z,9.25
2019-06-08T01:14:20.859Z,9.40
2019-06-08T01:15:27.756Z,9.50
2019-06-08T01:16:20.927Z,9.55
2019-06-08T01:17:20.992Z,9.59
2019-06-08T01:18:22.194Z,9.64
2019-06-08T01:19:21.053Z,9.70
2019-06-08T01:20:21.537Z,9.76
2019-06-08T01:21:21.216Z,9.77
2019-06-08T01:22:19.831Z,9.76
2019-06-08T01:23:19.838Z,9.75
2019-06-08T01:24:19.832Z,9.73
2019-06-08T01:25:20.216Z,9.72
2019-06-08T01:26:19.894Z,9.68
2019-06-08T01:27:20.014Z,9.63
2019-06-08T01:28:19.991Z,9.62
2019-06-08T01:29:20.169Z,9.67
2019-06-08T01:30:20.068Z,9.70
2019-06-08T01:31:20.378Z,9.65
2019-06-08T01:32:20.304Z,9.68
2019-06-08T01:33:20.443Z,9.71
2019-06-08T01:34:20.604Z,9.65
2019-06-08T01:35:20.835Z,9.61
2019-06-08T01:36:20.684Z,9.57
2019-06-08T01:37:20.975Z,9.57
2019-06-08T01:38:21.012Z,9.59
2019-06-08T01:39:21.036Z,9.63
2019-06-08T01:40:21.184Z,9.68
2019-06-08T01:41:21.237Z,9.70
2019-06-08T01:42:19.824Z,9.71
2019-06-08T01:43:19.823Z,9.71
2019-06-08T01:44:19.820Z,9.67
2019-06-08T01:45:19.819Z,9.66
2019-06-08T01:46:19.819Z,9.63
2019-06-08T01:47:19.826Z,9.58
2019-06-08T01:48:20.548Z,9.57
2019-06-08T01:49:19.817Z,9.57
2019-06-08T01:50:19.824Z,9.59
2019-06-08T01:51:26.576Z,9.55
2019-06-08T01:52:19.828Z,9.52
2019-06-08T01:53:19.825Z,9.50
2019-06-08T01:54:19.833Z,9.49
2019-06-08T01:55:19.814Z,9.45
2019-06-08T01:56:19.883Z,9.46
2019-06-08T01:57:19.829Z,9.47
2019-06-08T01:58:19.819Z,9.50
2019-06-08T01:59:19.813Z,9.54
2019-06-08T02:00:29.853Z,9.54
2019-06-08T02:01:19.812Z,9.56
2019-06-08T02:02:19.823Z,9.61
2019-06-08T02:03:19.820Z,9.62
2019-06-08T02:04:19.809Z,9.65
2019-06-08T02:05:19.808Z,9.65
2019-06-08T02:06:19.808Z,9.64
2019-06-08T02:07:19.819Z,9.64
2019-06-08T02:08:19.806Z,9.65
2019-06-08T02:09:19.807Z,9.69
2019-06-08T02:10:19.805Z,9.72
2019-06-08T02:11:19.808Z,9.72
2019-06-08T02:12:19.805Z,9.72
2019-06-08T02:13:19.812Z,9.73
2019-06-08T02:14:19.804Z,9.76
2019-06-08T02:15:19.801Z,9.81
2019-06-08T02:16:19.805Z,9.86
2019-06-08T02:17:19.801Z,9.89
2019-06-08T02:18:35.375Z,9.97
2019-06-08T02:19:19.799Z,10.00
2019-06-08T02:20:19.799Z,10.08
2019-06-08T02:21:19.818Z,10.13
2019-06-08T02:22:19.797Z,10.16
2019-06-08T02:23:19.862Z,10.22
2019-06-08T02:24:19.801Z,10.20
2019-06-08T02:25:19.799Z,10.16
2019-06-08T02:26:19.804Z,10.16
2019-06-08T02:27:19.798Z,10.15
2019-06-08T02:28:19.805Z,10.13
2019-06-08T02:29:19.795Z,10.13
2019-06-08T02:30:19.812Z,10.18
2019-06-08T02:31:19.792Z,10.23
2019-06-08T02:32:19.794Z,10.27
2019-06-08T02:33:19.801Z,10.28
2019-06-08T02:34:19.791Z,10.31
2019-06-08T02:35:19.792Z,10.38
2019-06-08T02:36:19.791Z,10.43
2019-06-08T02:37:19.792Z,10.47
2019-06-08T02:38:19.799Z,10.49
2019-06-08T02:39:19.791Z,10.51
2019-06-08T02:40:19.792Z,10.55
2019-06-08T02:41:19.791Z,10.60
2019-06-08T02:42:19.783Z,10.60
2019-06-08T02:43:19.794Z,10.60
2019-06-08T02:44:19.786Z,10.65
2019-06-08T02:45:19.795Z,10.70
2019-06-08T02:46:19.784Z,10.75
2019-06-08T02:47:19.783Z,10.79
2019-06-08T02:48:19.797Z,10.84
2019-06-08T02:49:19.784Z,10.91
2019-06-08T02:50:19.783Z,10.93
2019-06-08T02:51:19.782Z,10.93
2019-06-08T02:52:19.781Z,10.97
2019-06-08T02:53:19.791Z,11.01
2019-06-08T02:54:19.786Z,11.02
2019-06-08T02:55:19.780Z,11.02
2019-06-08T02:56:19.779Z,11.02
2019-06-08T02:57:19.780Z,11.04
2019-06-08T02:58:19.784Z,11.04
2019-06-08T02:59:19.784Z,11.04
2019-06-08T03:00:19.777Z,11.04
2019-06-08T03:01:19.777Z,11.04
2019-06-08T03:02:19.787Z,11.06
2019-06-08T03:03:19.775Z,11.12
2019-06-08T03:04:19.784Z,11.16
2019-06-08T03:05:19.779Z,11.14
2019-06-08T03:06:19.772Z,11.16
2019-06-08T03:07:19.775Z,11.18
2019-06-08T03:08:19.773Z,11.22
2019-06-08T03:09:19.782Z,11.21
2019-06-08T03:10:19.775Z,11.19
2019-06-08T03:11:19.772Z,11.16
2019-06-08T03:12:19.770Z,11.13
2019-06-08T03:13:19.772Z,11.10
2019-06-08T03:14:19.778Z,11.14
2019-06-08T03:15:19.775Z,11.16
2019-06-08T03:16:19.776Z,11.21
2019-06-08T03:17:19.771Z,11.20
2019-06-08T03:18:19.778Z,11.19
2019-06-08T03:19:22.465Z,11.12
2019-06-08T03:20:19.765Z,11.11
2019-06-08T03:21:19.769Z,11.17
2019-06-08T03:22:19.763Z,11.14
2019-06-08T03:23:19.766Z,11.06
2019-06-08T03:24:19.774Z,11.01
2019-06-08T03:25:19.764Z,10.95
2019-06-08T03:26:19.764Z,10.89
2019-06-08T03:27:19.761Z,10.86
2019-06-08T03:28:19.764Z,10.84
2019-06-08T03:29:19.775Z,10.81
2019-06-08T03:30:20.135Z,10.77
2019-06-08T03:31:19.760Z,10.79
2019-06-08T03:32:19.786Z,10.77
2019-06-08T03:33:19.758Z,10.80
2019-06-08T03:34:19.774Z,10.84
2019-06-08T03:35:19.756Z,10.85
2019-06-08T03:36:19.761Z,10.86
2019-06-08T03:37:19.759Z,10.88
2019-06-08T03:38:19.754Z,10.93
2019-06-08T03:39:19.754Z,10.97
2019-06-08T03:40:19.770Z,10.99
2019-06-08T03:41:19.754Z,10.98
2019-06-08T03:42:19.755Z,10.95
2019-06-08T03:43:19.753Z,10.91
2019-06-08T03:44:19.752Z,10.89
2019-06-08T03:45:19.768Z,10.91
2019-06-08T03:46:19.748Z,10.95
2019-06-08T03:47:19.749Z,10.93
2019-06-08T03:48:19.756Z,10.93
2019-06-08T03:49:37.143Z,10.91
2019-06-08T03:50:19.759Z,10.97
2019-06-08T03:51:19.747Z,11.08
2019-06-08T03:52:19.749Z,11.21
2019-06-08T03:53:19.747Z,11.27
2019-06-08T03:54:19.749Z,11.33
2019-06-08T03:55:19.751Z,11.34
2019-06-08T03:56:19.747Z,11.42
2019-06-08T03:57:19.759Z,11.46
2019-06-08T03:58:19.748Z,11.50
2019-06-08T03:59:19.742Z,11.51
2019-06-08T04:00:19.749Z,11.56
2019-06-08T04:01:19.746Z,11.62
2019-06-08T04:02:19.741Z,11.63
2019-06-08T04:03:19.743Z,11.66
2019-06-08T04:04:19.740Z,11.73
2019-06-08T04:05:19.769Z,11.77
2019-06-08T04:06:19.737Z,11.76
2019-06-08T04:07:19.738Z,11.73
2019-06-08T04:08:19.738Z,11.72
2019-06-08T04:09:19.755Z,11.69
2019-06-08T04:10:19.756Z,11.65
2019-06-08T04:11:19.744Z,11.64
2019-06-08T04:12:19.744Z,11.59
2019-06-08T04:13:19.734Z,11.52
2019-06-08T04:14:19.738Z,11.44
2019-06-08T04:15:19.731Z,11.39
2019-06-08T04:16:19.754Z,11.37
2019-06-08T04:17:19.732Z,11.34
2019-06-08T04:18:19.735Z,11.30
2019-06-08T04:19:19.730Z,11.28
2019-06-08T04:20:19.732Z,11.26
2019-06-08T04:21:19.742Z,11.22
2019-06-08T04:22:19.733Z,11.24
2019-06-08T04:23:19.728Z,11.29
2019-06-08T04:24:19.728Z,11.30
2019-06-08T04:25:19.743Z,11.30
2019-06-08T04:26:19.743Z,11.31
2019-06-08T04:27:19.726Z,11.36
2019-06-08T04:28:19.727Z,11.36
2019-06-08T04:29:19.733Z,11.32
2019-06-08T04:30:19.737Z,11.25
2019-06-08T04:31:19.737Z,11.17
2019-06-08T04:32:19.725Z,11.11
2019-06-08T04:33:19.722Z,11.04
2019-06-08T04:34:19.722Z,11.03
2019-06-08T04:35:19.722Z,11.01
2019-06-08T04:36:19.749Z,11.02
2019-06-08T04:37:19.723Z,11.07
2019-06-08T04:38:19.725Z,11.15
2019-06-08T04:39:19.721Z,11.17
2019-06-08T04:40:19.718Z,11.16
2019-06-08T04:41:19.717Z,11.16
2019-06-08T04:42:19.730Z,11.15
2019-06-08T04:43:19.720Z,11.16
2019-06-08T04:44:19.718Z,11.17
2019-06-08T04:45:19.726Z,11.20
2019-06-08T04:46:19.720Z,11.18
2019-06-08T04:47:19.722Z,11.19
2019-06-08T04:48:19.714Z,11.31
2019-06-08T04:49:19.715Z,11.46
2019-06-08T04:50:23.232Z,11.53
2019-06-08T04:51:19.722Z,11.60
2019-06-08T04:52:19.720Z,11.69
2019-06-08T04:53:19.712Z,11.73
2019-06-08T04:54:19.711Z,11.77
2019-06-08T04:55:19.708Z,11.82
2019-06-08T04:56:19.712Z,11.90
2019-06-08T04:57:19.748Z,11.91
2019-06-08T04:58:19.707Z,11.92
2019-06-08T04:59:19.713Z,11.94
2019-06-08T05:00:19.710Z,11.92
2019-06-08T05:01:19.710Z,11.88
2019-06-08T05:02:19.705Z,11.85
2019-06-08T05:03:19.722Z,11.88
2019-06-08T05:04:19.714Z,11.93
2019-06-08T05:05:19.704Z,11.98
2019-06-08T05:06:19.771Z,12.08
2019-06-08T05:07:19.698Z,12.19
2019-06-08T05:08:19.729Z,12.26
2019-06-08T05:09:19.704Z,12.33
2019-06-08T05:10:19.708Z,12.35
2019-06-08T05:11:19.703Z,12.33
2019-06-08T05:12:19.702Z,12.32
2019-06-08T05:13:19.712Z,12.30
2019-06-08T05:14:19.703Z,12.28
2019-06-08T05:15:19.704Z,12.25
2019-06-08T05:16:19.724Z,12.24
2019-06-08T05:17:19.699Z,12.22
2019-06-08T05:18:19.704Z,12.22
2019-06-08T05:19:19.697Z,12.25
2019-06-08T05:20:19.696Z,12.29
2019-06-08T05:21:19.750Z,12.29
2019-06-08T05:22:19.703Z,12.31
2019-06-08T05:23:19.701Z,12.34
2019-06-08T05:24:19.699Z,12.38
2019-06-08T05:25:19.692Z,12.38
2019-06-08T05:26:19.692Z,12.37
2019-06-08T05:27:19.705Z,12.37
2019-06-08T05:28:19.699Z,12.39
2019-06-08T05:29:19.690Z,12.36
2019-06-08T05:30:19.722Z,12.39
2019-06-08T05:31:19.692Z,12.43
2019-06-08T05:32:19.690Z,12.48
2019-06-08T05:33:19.696Z,12.48
2019-06-08T05:34:19.689Z,12.47
2019-06-08T05:35:19.685Z,12.48
2019-06-08T05:36:19.744Z,12.50
2019-06-08T05:37:19.720Z,12.53
2019-06-08T05:38:19.700Z,12.52
2019-06-08T05:39:19.691Z,12.58
2019-06-08T05:40:19.688Z,12.63
2019-06-08T05:41:19.693Z,12.65
2019-06-08T05:42:19.681Z,12.67
2019-06-08T05:43:19.689Z,12.63
2019-06-08T05:44:19.695Z,12.61
2019-06-08T05:45:19.714Z,12.61
2019-06-08T05:46:19.678Z,12.64
2019-06-08T05:47:19.682Z,12.68
2019-06-08T05:48:19.697Z,12.69
2019-06-08T05:49:19.700Z,12.73
2019-06-08T05:50:19.683Z,12.77
2019-06-08T05:51:19.679Z,12.79
2019-06-08T05:52:19.678Z,12.77
2019-06-08T05:53:19.749Z,12.82
2019-06-08T05:54:19.682Z,12.82
2019-06-08T05:55:19.673Z,12.82
2019-06-08T05:56:19.674Z,12.82
2019-06-08T05:57:19.679Z,12.84
2019-06-08T05:58:19.677Z,12.83
2019-06-08T05:59:19.684Z,12.83
2019-06-08T06:00:19.674Z,12.86
2019-06-08T06:01:19.674Z,12.92
2019-06-08T06:02:19.670Z,12.96
2019-06-08T06:03:19.673Z,13.02
2019-06-08T06:04:19.679Z,13.09
2019-06-08T06:05:19.674Z,13.16
2019-06-08T06:06:19.668Z,13.26
2019-06-08T06:07:19.667Z,13.34
2019-06-08T06:08:19.713Z,13.41
2019-06-08T06:09:19.683Z,13.48
2019-06-08T06:10:19.666Z,13.61
2019-06-08T06:11:19.666Z,13.69
2019-06-08T06:12:19.665Z,13.73
2019-06-08T06:13:19.669Z,13.73
2019-06-08T06:14:19.671Z,13.78
2019-06-08T06:15:19.667Z,13.84
2019-06-08T06:16:19.661Z,13.90
2019-06-08T06:17:19.663Z,13.92
2019-06-08T06:18:19.660Z,13.93
2019-06-08T06:19:19.670Z,13.95
2019-06-08T06:20:19.662Z,13.92
2019-06-08T06:21:19.659Z,13.96
2019-06-08T06:22:19.656Z,14.06
2019-06-08T06:23:19.659Z,14.17
2019-06-08T06:24:19.670Z,14.29
2019-06-08T06:25:19.663Z,14.39
2019-06-08T06:26:19.656Z,14.47
2019-06-08T06:27:19.656Z,14.51
2019-06-08T06:28:19.654Z,14.46
2019-06-08T06:29:19.664Z,14.43
2019-06-08T06:30:19.658Z,14.47
2019-06-08T06:31:19.654Z,14.56
2019-06-08T06:32:19.653Z,14.62
2019-06-08T06:33:19.653Z,14.68
2019-06-08T06:34:19.661Z,14.72
2019-06-08T06:35:19.652Z,14.70
2019-06-08T06:36:19.652Z,14.69
2019-06-08T06:37:19.688Z,14.67
2019-06-08T06:38:19.656Z,14.61
2019-06-08T06:39:19.648Z,14.63
2019-06-08T06:40:19.659Z,14.69
2019-06-08T06:41:19.657Z,14.71
2019-06-08T06:42:19.644Z,14.70
2019-06-08T06:43:19.651Z,14.69
2019-06-08T06:44:19.663Z,14.70
2019-06-08T06:45:19.656Z,14.70
2019-06-08T06:46:19.645Z,14.65
2019-06-08T06:47:19.646Z,14.62
2019-06-08T06:48:23.267Z,14.59
2019-06-08T06:49:19.644Z,14.56
2019-06-08T06:50:19.653Z,14.58
2019-06-08T06:51:26.110Z,14.58
2019-06-08T06:52:19.642Z,14.56
2019-06-08T06:53:19.657Z,14.54
2019-06-08T06:54:19.640Z,14.57
2019-06-08T06:55:19.650Z,14.63
2019-06-08T06:56:19.641Z,14.71
2019-06-08T06:57:19.645Z,14.77
2019-06-08T06:58:19.722Z,14.79
2019-06-08T06:59:19.636Z,14.81
2019-06-08T07:00:19.645Z,14.80
2019-06-08T07:01:19.635Z,14.82
2019-06-08T07:02:19.639Z,14.85
2019-06-08T07:03:19.637Z,14.86
2019-06-08T07:04:19.644Z,14.97
2019-06-08T07:05:19.646Z,15.08
2019-06-08T07:06:19.644Z,15.16
2019-06-08T07:07:19.631Z,15.23
2019-06-08T07:08:19.634Z,15.27
2019-06-08T07:09:19.630Z,15.35
2019-06-08T07:10:19.651Z,15.54
2019-06-08T07:11:19.631Z,15.61
2019-06-08T07:12:19.629Z,15.66
2019-06-08T07:13:19.639Z,15.78
2019-06-08T07:14:19.634Z,15.74
2019-06-08T07:15:19.630Z,15.70
2019-06-08T07:16:19.641Z,15.95
2019-06-08T07:17:19.628Z,16.03
2019-06-08T07:18:19.631Z,15.95
2019-06-08T07:19:19.626Z,15.89
2019-06-08T07:20:19.626Z,15.95
2019-06-08T07:21:19.645Z,16.00
2019-06-08T07:22:19.622Z,16.01
2019-06-08T07:23:19.625Z,15.93
2019-06-08T07:24:19.623Z,15.77
2019-06-08T07:25:19.625Z,15.69
2019-06-08T07:26:19.655Z,16.08
2019-06-08T07:27:19.621Z,16.55
2019-06-08T07:28:19.621Z,17.12
2019-06-08T07:29:19.623Z,17.26
2019-06-08T07:30:19.629Z,16.97
2019-06-08T07:31:19.628Z,16.98
2019-06-08T07:32:19.619Z,17.37
2019-06-08T07:33:19.625Z,17.15
2019-06-08T07:34:19.619Z,16.84
2019-06-08T07:35:19.617Z,16.59
2019-06-08T07:36:19.634Z,16.63
2019-06-08T07:37:19.621Z,16.74
2019-06-08T07:38:19.615Z,17.23
2019-06-08T07:39:19.615Z,17.40
2019-06-08T07:40:19.615Z,17.16
2019-06-08T07:41:19.638Z,16.99
2019-06-08T07:42:19.613Z,17.06
2019-06-08T07:43:19.614Z,17.15
2019-06-08T07:44:19.615Z,16.84
2019-06-08T07:45:19.616Z,16.49
2019-06-08T07:46:19.610Z,16.20
2019-06-08T07:47:19.618Z,16.12
2019-06-08T07:48:19.608Z,16.34
2019-06-08T07:49:19.611Z,16.77
2019-06-08T07:50:19.613Z,16.87
2019-06-08T07:51:19.608Z,16.85
2019-06-08T07:52:19.618Z,16.80
2019-06-08T07:53:19.609Z,16.91
2019-06-08T07:54:19.607Z,16.88
2019-06-08T07:55:19.606Z,16.63
2019-06-08T07:56:19.607Z,16.34
2019-06-08T07:57:19.618Z,16.08
2019-06-08T07:58:19.607Z,16.04
2019-06-08T07:59:19.607Z,16.62
2019-06-08T08:00:19.605Z,17.15
2019-06-08T08:01:34.992Z,17.58
2019-06-08T08:02:19.613Z,17.82
2019-06-08T08:03:19.602Z,17.58
2019-06-08T08:04:19.600Z,17.29
2019-06-08T08:05:19.601Z,17.42
2019-06-08T08:06:19.602Z,17.55
2019-06-08T08:07:19.610Z,17.55
2019-06-08T08:08:19.599Z,17.29
2019-06-08T08:09:19.600Z,17.13
2019-06-08T08:10:19.710Z,17.03
2019-06-08T08:11:19.605Z,17.43
2019-06-08T08:12:19.608Z,18.38
2019-06-08T08:13:19.595Z,19.40
2019-06-08T08:14:19.597Z,19.95
2019-06-08T08:15:19.629Z,19.80
2019-06-08T08:16:19.592Z,19.09
2019-06-08T08:17:19.601Z,19.06
2019-06-08T08:18:19.593Z,19.12
2019-06-08T08:19:19.596Z,18.86
2019-06-08T08:20:19.592Z,18.67
2019-06-08T08:21:25.900Z,18.46
2019-06-08T08:22:25.885Z,17.99
2019-06-08T08:23:19.592Z,17.54
2019-06-08T08:24:19.592Z,17.45
2019-06-08T08:25:19.593Z,17.36
2019-06-08T08:26:19.588Z,17.27
2019-06-08T08:27:19.597Z,17.07
2019-06-08T08:28:19.591Z,17.06
2019-06-08T08:29:19.588Z,17.06
2019-06-08T08:30:20.309Z,17.07
2019-06-08T08:31:19.587Z,17.06
2019-06-08T08:32:19.603Z,17.12
2019-06-08T08:33:19.585Z,16.99
2019-06-08T08:34:19.584Z,16.86
2019-06-08T08:35:19.586Z,16.82
2019-06-08T08:36:21.032Z,16.86
2019-06-08T08:37:19.596Z,16.82
2019-06-08T08:38:19.583Z,16.83
2019-06-08T08:39:19.581Z,16.95
2019-06-08T08:40:19.582Z,16.99
2019-06-08T08:41:19.582Z,17.00
2019-06-08T08:42:19.586Z,17.06
2019-06-08T08:43:22.857Z,17.19
2019-06-08T08:44:19.585Z,17.46
2019-06-08T08:45:19.580Z,17.92
2019-06-08T08:46:19.577Z,17.72
2019-06-08T08:47:19.586Z,17.52
2019-06-08T08:48:25.426Z,17.33
2019-06-08T08:49:19.577Z,17.19
2019-06-08T08:50:19.575Z,17.09
2019-06-08T08:51:20.672Z,16.95
2019-06-08T08:52:33.491Z,16.84
2019-06-08T08:53:19.572Z,16.84
2019-06-08T08:54:19.574Z,16.95
2019-06-08T08:55:20.550Z,17.07
2019-06-08T08:56:19.573Z,17.18
2019-06-08T08:57:19.577Z,17.29
2019-06-08T08:58:19.583Z,17.38
2019-06-08T08:59:19.580Z,17.56
2019-06-08T09:00:19.572Z,17.84
2019-06-08T09:01:20.528Z,18.15
2019-06-08T09:02:21.411Z,18.05
2019-06-08T09:03:28.827Z,17.87
2019-06-08T09:04:19.577Z,17.84
2019-06-08T09:05:19.567Z,17.73
2019-06-08T09:06:19.568Z,17.81
2019-06-08T09:07:19.567Z,17.92
2019-06-08T09:08:19.576Z,17.99
2019-06-08T09:09:21.616Z,17.93
2019-06-08T09:10:19.566Z,17.94
2019-06-08T09:11:19.566Z,18.00
2019-06-08T09:12:19.564Z,18.22
2019-06-08T09:13:19.575Z,18.19
2019-06-08T09:14:19.574Z,18.12
2019-06-08T09:15:19.564Z,18.06
2019-06-08T09:16:19.561Z,17.99
2019-06-08T09:17:19.561Z,17.91
2019-06-08T09:18:19.579Z,18.04
2019-06-08T09:19:20.950Z,18.21
2019-06-08T09:20:19.598Z,18.36
2019-06-08T09:21:19.564Z,18.21
2019-06-08T09:22:19.562Z,18.10
2019-06-08T09:23:21.944Z,17.98
2019-06-08T09:24:19.566Z,17.86
2019-06-08T09:25:19.556Z,17.96
2019-06-08T09:26:19.555Z,18.15
2019-06-08T09:27:19.563Z,18.40
2019-06-08T09:28:19.556Z,18.58
2019-06-08T09:29:19.565Z,18.59
2019-06-08T09:30:19.555Z,18.56
2019-06-08T09:31:19.561Z,18.54
2019-06-08T09:32:19.557Z,18.62
2019-06-08T09:33:19.553Z,18.62
2019-06-08T09:34:19.758Z,18.50
2019-06-08T09:35:21.373Z,18.37
2019-06-08T09:36:19.552Z,18.23
2019-06-08T09:37:19.553Z,18.32
2019-06-08T09:38:19.556Z,18.31
2019-06-08T09:39:19.558Z,18.24
2019-06-08T09:40:19.549Z,18.14
2019-06-08T09:41:19.554Z,18.08
2019-06-08T09:42:21.213Z,18.23
2019-06-08T09:43:19.547Z,18.32
2019-06-08T09:44:19.558Z,18.51
2019-06-08T09:45:19.548Z,18.81
2019-06-08T09:46:19.547Z,19.05
2019-06-08T09:47:19.545Z,19.11
2019-06-08T09:48:19.544Z,19.10
2019-06-08T09:49:19.551Z,19.01
2019-06-08T09:50:19.545Z,18.99
2019-06-08T09:51:19.543Z,18.92
2019-06-08T09:52:21.626Z,18.89
2019-06-08T09:53:26.740Z,19.07
2019-06-08T09:54:19.589Z,19.00
2019-06-08T09:55:19.543Z,18.85
2019-06-08T09:56:19.539Z,18.62
2019-06-08T09:57:19.541Z,18.46
2019-06-08T09:58:19.565Z,18.35
2019-06-08T09:59:19.551Z,18.37
2019-06-08T10:00:25.298Z,18.40
2019-06-08T10:01:19.563Z,18.24
2019-06-08T10:02:19.557Z,18.15
2019-06-08T10:03:19.537Z,18.23
2019-06-08T10:04:19.597Z,18.37
2019-06-08T10:05:19.546Z,18.45
2019-06-08T10:06:19.533Z,18.39
2019-06-08T10:07:19.539Z,18.27
2019-06-08T10:08:20.793Z,18.06
2019-06-08T10:09:19.551Z,17.87
2019-06-08T10:10:19.547Z,17.90
2019-06-08T10:11:19.536Z,17.86
2019-06-08T10:12:19.541Z,17.97
2019-06-08T10:13:19.674Z,18.17
2019-06-08T10:14:19.530Z,18.33
2019-06-08T10:15:19.666Z,18.53
2019-06-08T10:16:19.532Z,18.85
2019-06-08T10:17:20.960Z,19.15
2019-06-08T10:18:19.528Z,19.43
2019-06-08T10:19:19.528Z,19.70
2019-06-08T10:20:19.537Z,19.80
2019-06-08T10:21:21.160Z,19.67
2019-06-08T10:22:19.525Z,19.43
2019-06-08T10:23:30.585Z,19.11
2019-06-08T10:24:19.526Z,18.85
2019-06-08T10:25:19.549Z,18.90
2019-06-08T10:26:19.578Z,19.01
2019-06-08T10:27:19.523Z,19.07
2019-06-08T10:28:21.739Z,19.05
2019-06-08T10:29:19.531Z,18.94
2019-06-08T10:30:19.538Z,18.92
2019-06-08T10:31:19.524Z,19.12
2019-06-08T10:32:19.532Z,19.31
2019-06-08T10:33:19.520Z,19.40
2019-06-08T10:34:19.518Z,19.31
2019-06-08T10:35:20.972Z,19.01
2019-06-08T10:36:19.519Z,18.86
2019-06-08T10:37:19.518Z,18.83
2019-06-08T10:38:19.519Z,18.80
2019-06-08T10:39:19.521Z,18.92
2019-06-08T10:40:19.536Z,18.88
2019-06-08T10:41:21.810Z,19.01
2019-06-08T10:42:19.517Z,18.95
2019-06-08T10:43:20.042Z,18.95
2019-06-08T10:44:19.517Z,19.13
2019-06-08T10:45:19.529Z,19.30
2019-06-08T10:46:20.906Z,19.43
2019-06-08T10:47:19.519Z,19.54
2019-06-08T10:48:19.514Z,19.57
2019-06-08T10:49:19.747Z,19.42
2019-06-08T10:50:19.621Z,19.04
2019-06-08T10:51:19.528Z,18.79
2019-06-08T10:52:20.388Z,18.78
2019-06-08T10:53:19.552Z,18.94
2019-06-08T10:54:19.517Z,19.11
2019-06-08T10:55:19.516Z,19.19
2019-06-08T10:56:19.586Z,19.22
2019-06-08T10:57:19.546Z,19.29
2019-06-08T10:58:19.678Z,19.37
2019-06-08T10:59:19.525Z,19.45
2019-06-08T11:00:23.586Z,19.52
2019-06-08T11:01:19.514Z,19.25
2019-06-08T11:02:19.519Z,19.04
2019-06-08T11:03:19.511Z,18.99
2019-06-08T11:04:19.509Z,19.00
2019-06-08T11:05:19.533Z,19.01
2019-06-08T11:06:19.540Z,19.00
2019-06-08T11:07:19.500Z,19.15
2019-06-08T11:08:19.778Z,19.25
2019-06-08T11:09:19.760Z,19.15
2019-06-08T11:10:19.528Z,19.06
2019-06-08T11:11:20.460Z,19.09
2019-06-08T11:12:19.509Z,19.15
2019-06-08T11:13:19.498Z,19.15
2019-06-08T11:14:22.436Z,19.07
2019-06-08T11:15:19.498Z,19.10
2019-06-08T11:16:19.507Z,19.03
2019-06-08T11:17:19.498Z,18.99
2019-06-08T11:18:19.494Z,18.99
2019-06-08T11:19:19.586Z,18.95
2019-06-08T11:20:19.492Z,18.85
2019-06-08T11:21:19.503Z,18.90
2019-06-08T11:22:19.495Z,18.82
2019-06-08T11:23:19.505Z,18.86
2019-06-08T11:24:24.636Z,18.84
2019-06-08T11:25:19.981Z,18.87
2019-06-08T11:26:24.088Z,19.01
2019-06-08T11:27:19.491Z,18.87
2019-06-08T11:28:19.488Z,18.56
2019-06-08T11:29:19.499Z,18.31
2019-06-08T11:30:26.266Z,18.19
2019-06-08T11:31:19.913Z,18.05
2019-06-08T11:32:19.488Z,18.10
2019-06-08T11:33:19.493Z,18.13
2019-06-08T11:34:21.896Z,18.16
2019-06-08T11:35:19.503Z,18.21
2019-06-08T11:36:19.516Z,18.26
2019-06-08T11:37:21.128Z,18.29
2019-06-08T11:38:20.220Z,18.33
2019-06-08T11:39:19.489Z,18.34
2019-06-08T11:40:20.840Z,18.24
2019-06-08T11:41:22.686Z,18.27
2019-06-08T11:42:19.489Z,18.42
2019-06-08T11:43:19.501Z,18.54
2019-06-08T11:44:19.489Z,18.67
2019-06-08T11:45:19.482Z,18.75
2019-06-08T11:46:21.781Z,18.82
2019-06-08T11:47:19.497Z,18.82
2019-06-08T11:48:19.478Z,18.86
2019-06-08T11:49:19.474Z,19.10
2019-06-08T11:50:19.474Z,19.23
2019-06-08T11:51:19.484Z,19.43
2019-06-08T11:52:19.497Z,19.71
2019-06-08T11:53:19.485Z,20.00
2019-06-08T11:54:32.315Z,20.17
2019-06-08T11:55:19.474Z,20.03
2019-06-08T11:56:19.474Z,19.84
2019-06-08T11:57:19.481Z,19.87
2019-06-08T11:58:22.803Z,19.90
2019-06-08T11:59:19.478Z,20.00
2019-06-08T12:00:27.582Z,19.95
2019-06-08T12:01:19.471Z,19.98
2019-06-08T12:02:19.490Z,19.84
2019-06-08T12:03:19.470Z,20.01
2019-06-08T12:04:19.469Z,20.17
2019-06-08T12:05:19.468Z,20.40
2019-06-08T12:06:19.471Z,20.78
2019-06-08T12:07:19.468Z,20.94
2019-06-08T12:08:20.992Z,20.72
2019-06-08T12:09:19.468Z,20.53
2019-06-08T12:10:19.578Z,20.66
2019-06-08T12:11:22.397Z,20.84
2019-06-08T12:12:21.441Z,20.94
2019-06-08T12:13:19.476Z,20.88
2019-06-08T12:14:19.464Z,20.61
2019-06-08T12:15:21.162Z,20.57
2019-06-08T12:16:22.222Z,20.61
2019-06-08T12:17:22.430Z,20.72
2019-06-08T12:18:19.468Z,20.75
2019-06-08T12:19:20.830Z,20.57
2019-06-08T12:20:21.312Z,20.38
2019-06-08T12:21:19.459Z,20.33
2019-06-08T12:22:21.771Z,20.43
2019-06-08T12:23:19.547Z,20.37
2019-06-08T12:24:19.461Z,20.41
2019-06-08T12:25:19.458Z,20.28
2019-06-08T12:26:19.460Z,20.27
2019-06-08T12:27:28.865Z,20.51
2019-06-08T12:28:19.464Z,20.69
2019-06-08T12:29:19.459Z,20.77
2019-06-08T12:30:26.021Z,20.82
2019-06-08T12:31:22.741Z,20.71
2019-06-08T12:32:19.454Z,20.80
2019-06-08T12:33:22.736Z,20.93
2019-06-08T12:34:19.452Z,20.60
2019-06-08T12:35:19.451Z,20.44
2019-06-08T12:36:20.690Z,20.62
2019-06-08T12:37:22.184Z,20.77
2019-06-08T12:38:19.475Z,20.94
2019-06-08T12:39:21.414Z,20.86
2019-06-08T12:40:20.942Z,20.41
2019-06-08T12:41:19.489Z,20.23
2019-06-08T12:42:22.902Z,20.44
2019-06-08T12:43:20.365Z,20.80
2019-06-08T12:44:22.031Z,21.04
2019-06-08T12:45:20.465Z,20.98
2019-06-08T12:46:21.485Z,21.06
2019-06-08T12:47:25.851Z,21.17
2019-06-08T12:48:23.462Z,21.13
2019-06-08T12:49:20.488Z,21.03
2019-06-08T12:50:20.061Z,21.06
2019-06-08T12:51:21.329Z,21.24
2019-06-08T12:52:22.180Z,21.47
2019-06-08T12:53:22.597Z,21.55
2019-06-08T12:54:20.782Z,21.40
2019-06-08T12:55:24.695Z,21.37
2019-06-08T12:56:23.827Z,21.37